Time;durP1;ratioP1;P1;durP2;ratioP2;P2;SDS_P1;SDS_P2;PMS_P1;PMS_P2;Temp;Humidity;BMP_temperature;BMP_pressure;BME280_temperature;BME280_humidity;BME280_pressure;Samples;Min_cycle;Max_cycle;Signal;HPM_P1;HPM_P2
2021/10/10 00:01:00;;;;;;;2.93;2.63;;;;;;;;;;5116482;28;20253;-83
2021/10/10 00:03:27;;;;;;;2.67;2.47;;;;;;;;;;5115689;28;20202;-83
2021/10/10 00:05:54;;;;;;;3.40;2.87;;;;;;;;;;5115997;28;20195;-83
2021/10/10 00:08:21;;;;;;;2.67;2.13;;;;;;;;;;5115603;28;20226;-83
2021/10/10 00:10:49;;;;;;;4.10;2.33;;;;;;;;;;5115703;28;20195;-82
2021/10/10 00:13:16;;;;;;;2.83;2.43;;;;;;;;;;5115710;28;20204;-83
2021/10/10 00:15:43;;;;;;;4.10;2.37;;;;;;;;;;5115799;28;20290;-83
2021/10/10 00:18:12;;;;;;;2.07;1.90;;;;;;;;;;5115501;28;20237;-82
2021/10/10 00:20:39;;;;;;;2.40;2.20;;;;;;;;;;5115711;28;20196;-83
2021/10/10 00:23:07;;;;;;;2.77;2.13;;;;;;;;;;5115257;28;20196;-83
2021/10/10 00:25:34;;;;;;;2.60;2.20;;;;;;;;;;5116072;28;20586;-83
2021/10/10 00:28:01;;;;;;;2.20;2.00;;;;;;;;;;5115719;28;20218;-83
2021/10/10 00:30:28;;;;;;;4.43;2.20;;;;;;;;;;5115571;28;20221;-83
2021/10/10 00:32:56;;;;;;;2.20;2.10;;;;;;;;;;5115579;28;20214;-82
2021/10/10 00:35:24;;;;;;;3.07;2.13;;;;;;;;;;5115685;28;20217;-83
2021/10/10 00:37:51;;;;;;;2.40;2.20;;;;;;;;;;5115112;28;20219;-83
2021/10/10 00:40:19;;;;;;;2.27;2.07;;;;;;;;;;5115617;28;20214;-83
2021/10/10 00:42:46;;;;;;;3.63;2.63;;;;;;;;;;5114870;28;20199;-83
2021/10/10 00:45:13;;;;;;;3.27;2.30;;;;;;;;;;5115286;28;20203;-82
2021/10/10 00:47:43;;;;;;;3.63;2.50;;;;;;;;;;5115084;28;20196;-83
2021/10/10 00:50:11;;;;;;;2.73;2.30;;;;;;;;;;5115135;28;20202;-82
2021/10/10 00:52:42;;;;;;;5.20;3.30;;;;;;;;;;5114962;28;20195;-83
2021/10/10 00:55:10;;;;;;;3.40;2.87;;;;;;;;;;5115462;28;20191;-83
2021/10/10 00:57:38;;;;;;;3.30;2.40;;;;;;;;;;5114794;28;20223;-83
2021/10/10 01:00:08;;;;;;;2.87;2.60;;;;;;;;;;5114767;28;20195;-83
2021/10/10 01:02:36;;;;;;;2.80;2.07;;;;;;;;;;5114742;28;20256;-83
2021/10/10 01:05:04;;;;;;;2.57;2.13;;;;;;;;;;5114816;28;20199;-83
2021/10/10 01:07:31;;;;;;;2.87;2.60;;;;;;;;;;5114289;28;20235;-83
2021/10/10 01:10:00;;;;;;;4.47;3.20;;;;;;;;;;5114823;28;20692;-83
2021/10/10 01:12:28;;;;;;;3.97;2.30;;;;;;;;;;5114325;28;20195;-83
2021/10/10 01:14:56;;;;;;;3.80;2.50;;;;;;;;;;5114683;28;20202;-83
2021/10/10 01:17:25;;;;;;;2.90;2.63;;;;;;;;;;5114466;28;20227;-83
2021/10/10 01:19:54;;;;;;;2.00;1.90;;;;;;;;;;5114942;28;20271;-84
2021/10/10 01:22:23;;;;;;;2.50;2.30;;;;;;;;;;5114345;28;20198;-84
2021/10/10 01:24:50;;;;;;;2.90;2.00;;;;;;;;;;5114727;28;20668;-83
2021/10/10 01:27:18;;;;;;;2.60;2.40;;;;;;;;;;5114681;28;20206;-83
2021/10/10 01:29:45;;;;;;;3.27;2.17;;;;;;;;;;5114082;28;20205;-83
2021/10/10 01:32:12;;;;;;;2.27;2.17;;;;;;;;;;5114727;28;20199;-83
2021/10/10 01:34:44;;;;;;;2.37;2.17;;;;;;;;;;5114144;28;20191;-82
2021/10/10 01:37:11;;;;;;;2.50;2.30;;;;;;;;;;5114172;28;20265;-81
2021/10/10 01:39:40;;;;;;;3.73;2.10;;;;;;;;;;5113863;28;20200;-83
2021/10/10 01:42:08;;;;;;;2.63;2.03;;;;;;;;;;5114424;28;20206;-83
2021/10/10 01:44:35;;;;;;;2.37;2.17;;;;;;;;;;5113923;28;20682;-83
2021/10/10 01:47:02;;;;;;;2.53;2.33;;;;;;;;;;5114099;28;20202;-83
2021/10/10 01:49:29;;;;;;;3.07;2.30;;;;;;;;;;5113544;28;20202;-83
2021/10/10 01:51:56;;;;;;;2.63;2.30;;;;;;;;;;5113978;28;20195;-83
2021/10/10 01:54:24;;;;;;;2.33;2.00;;;;;;;;;;5113983;28;20200;-83
2021/10/10 01:56:52;;;;;;;3.57;3.27;;;;;;;;;;5114150;28;20223;-83
2021/10/10 01:59:19;;;;;;;2.40;2.20;;;;;;;;;;5113807;28;20268;-83
2021/10/10 02:01:47;;;;;;;5.10;2.33;;;;;;;;;;5113573;28;20192;-83
2021/10/10 02:04:14;;;;;;;2.13;1.97;;;;;;;;;;5113851;28;20199;-83
2021/10/10 02:06:41;;;;;;;1.90;1.80;;;;;;;;;;5113764;28;20234;-83
2021/10/10 02:09:08;;;;;;;3.27;2.20;;;;;;;;;;5112973;28;20237;-83
2021/10/10 02:11:35;;;;;;;2.60;2.40;;;;;;;;;;5113604;28;20200;-83
2021/10/10 02:14:04;;;;;;;3.67;2.83;;;;;;;;;;5113347;28;20191;-83
2021/10/10 02:16:31;;;;;;;2.67;2.47;;;;;;;;;;5113828;28;20192;-83
2021/10/10 02:18:58;;;;;;;3.87;3.47;;;;;;;;;;5112283;28;20725;-83
2021/10/10 02:21:26;;;;;;;2.63;2.43;;;;;;;;;;5113496;28;20202;-83
2021/10/10 02:23:53;;;;;;;3.33;2.50;;;;;;;;;;5113053;28;20192;-83
2021/10/10 02:26:20;;;;;;;2.77;2.40;;;;;;;;;;5113303;28;20196;-82
2021/10/10 02:28:47;;;;;;;2.93;2.73;;;;;;;;;;5113327;28;20218;-83
2021/10/10 02:31:17;;;;;;;3.27;2.93;;;;;;;;;;5113287;28;20196;-83
2021/10/10 02:33:44;;;;;;;3.30;3.00;;;;;;;;;;5112962;28;20210;-83
2021/10/10 02:36:11;;;;;;;4.10;2.50;;;;;;;;;;5113154;28;20202;-83
2021/10/10 02:38:38;;;;;;;3.40;3.10;;;;;;;;;;5112752;28;20219;-83
2021/10/10 02:41:05;;;;;;;2.73;2.53;;;;;;;;;;5112742;28;20203;-82
2021/10/10 02:43:32;;;;;;;2.33;2.13;;;;;;;;;;5112710;28;20278;-82
2021/10/10 02:45:59;;;;;;;3.17;2.73;;;;;;;;;;5112964;28;20191;-82
2021/10/10 02:48:28;;;;;;;3.33;2.70;;;;;;;;;;5112535;28;20192;-83
2021/10/10 02:50:55;;;;;;;1.90;1.80;;;;;;;;;;5112857;28;20203;-83
2021/10/10 02:53:22;;;;;;;3.13;2.70;;;;;;;;;;5112621;28;20690;-83
2021/10/10 02:55:50;;;;;;;2.47;2.10;;;;;;;;;;5112700;28;20195;-82
2021/10/10 02:58:17;;;;;;;2.13;2.03;;;;;;;;;;5112253;28;20219;-83
2021/10/10 03:00:44;;;;;;;2.30;2.20;;;;;;;;;;5112707;28;20196;-82
2021/10/10 03:05:48;;;;;;;2.77;2.50;;;;;;;;;;5168677;22;20244;-83
2021/10/10 03:08:15;;;;;;;2.00;1.90;;;;;;;;;;5033312;28;20294;-83
2021/10/10 03:10:42;;;;;;;1.70;1.60;;;;;;;;;;5032030;28;20214;-82
2021/10/10 03:13:10;;;;;;;2.40;2.20;;;;;;;;;;5060587;28;20207;-82
2021/10/10 03:15:39;;;;;;;2.33;2.13;;;;;;;;;;5071488;28;20695;-82
2021/10/10 03:18:07;;;;;;;2.20;2.10;;;;;;;;;;5072054;28;20228;-82
2021/10/10 03:20:34;;;;;;;3.30;2.10;;;;;;;;;;5071678;28;20205;-82
2021/10/10 03:23:03;;;;;;;2.13;1.93;;;;;;;;;;5071887;28;20197;-82
2021/10/10 03:25:30;;;;;;;2.40;2.20;;;;;;;;;;5067383;28;20591;-82
2021/10/10 03:27:57;;;;;;;3.60;3.30;;;;;;;;;;5068230;28;20215;-83
2021/10/10 03:30:25;;;;;;;3.47;3.17;;;;;;;;;;5071296;28;20197;-82
2021/10/10 03:32:52;;;;;;;5.97;5.47;;;;;;;;;;5072070;28;20201;-83
2021/10/10 03:35:19;;;;;;;8.93;7.33;;;;;;;;;;5071461;28;20197;-83
2021/10/10 03:37:46;;;;;;;5.47;4.97;;;;;;;;;;5071809;28;20248;-82
2021/10/10 03:40:15;;;;;;;4.90;3.73;;;;;;;;;;5071765;28;20275;-83
2021/10/10 03:42:43;;;;;;;2.87;2.67;;;;;;;;;;5071665;28;20647;-83
2021/10/10 03:45:11;;;;;;;4.37;3.97;;;;;;;;;;5071481;28;20271;-83
2021/10/10 03:47:38;;;;;;;2.13;2.03;;;;;;;;;;5352416;22;20225;-83
2021/10/10 03:50:07;;;;;;;3.40;3.10;;;;;;;;;;5041120;28;20268;-83
2021/10/10 03:52:34;;;;;;;2.43;2.27;;;;;;;;;;5031150;28;20696;-85
2021/10/10 03:55:27;;;;;;;2.40;2.20;;;;;;;;;;5033250;28;20584;-82
2021/10/10 03:57:55;;;;;;;2.57;2.37;;;;;;;;;;5051044;28;20260;-83
2021/10/10 04:00:23;;;;;;;6.47;5.33;;;;;;;;;;5051078;28;20242;-83
2021/10/10 04:02:50;;;;;;;3.70;3.40;;;;;;;;;;5051059;28;20205;-82
2021/10/10 04:05:23;;;;;;;5.50;5.00;;;;;;;;;;5051615;28;20225;-83
2021/10/10 04:07:50;;;;;;;6.87;6.17;;;;;;;;;;5051474;28;20196;-82
2021/10/10 04:10:18;;;;;;;7.97;7.03;;;;;;;;;;5051125;28;20198;-82
2021/10/10 04:12:45;;;;;;;4.40;4.00;;;;;;;;;;5031765;28;20662;-82
2021/10/10 04:15:14;;;;;;;3.10;2.80;;;;;;;;;;5031377;28;20199;-84
2021/10/10 04:17:41;;;;;;;4.53;3.90;;;;;;;;;;5031084;28;20234;-83
2021/10/10 04:20:10;;;;;;;3.87;3.57;;;;;;;;;;5031328;28;20234;-83
2021/10/10 04:22:37;;;;;;;5.07;4.23;;;;;;;;;;5030837;28;20217;-83
2021/10/10 04:25:06;;;;;;;4.17;3.73;;;;;;;;;;5030820;28;20203;-83
2021/10/10 04:27:35;;;;;;;4.30;3.70;;;;;;;;;;5031046;28;20230;-83
2021/10/10 04:30:02;;;;;;;3.87;3.13;;;;;;;;;;5031148;28;20194;-84
2021/10/10 04:32:31;;;;;;;3.70;3.40;;;;;;;;;;5030744;28;20202;-83
2021/10/10 04:34:58;;;;;;;6.63;4.67;;;;;;;;;;5031246;28;20214;-83
2021/10/10 04:37:25;;;;;;;3.97;3.13;;;;;;;;;;5030977;28;20296;-83
2021/10/10 04:39:52;;;;;;;5.60;4.23;;;;;;;;;;5031030;28;20205;-83
2021/10/10 04:42:19;;;;;;;3.10;2.90;;;;;;;;;;5032238;28;20293;-83
2021/10/10 04:44:47;;;;;;;3.20;3.00;;;;;;;;;;5034756;28;20230;-83
2021/10/10 04:47:14;;;;;;;2.03;1.83;;;;;;;;;;5034431;28;20203;-83
2021/10/10 04:49:42;;;;;;;3.27;3.07;;;;;;;;;;5034437;28;20189;-83
2021/10/10 04:52:10;;;;;;;3.40;3.20;;;;;;;;;;5034142;28;20198;-83
2021/10/10 04:54:37;;;;;;;4.13;3.80;;;;;;;;;;5034509;28;20206;-83
2021/10/10 04:57:04;;;;;;;5.20;4.70;;;;;;;;;;5034551;28;20194;-84
2021/10/10 04:59:31;;;;;;;2.87;2.67;;;;;;;;;;5034201;28;20222;-84
2021/10/10 05:01:59;;;;;;;2.83;2.07;;;;;;;;;;5034425;28;20204;-84
2021/10/10 05:04:26;;;;;;;2.07;1.93;;;;;;;;;;5034169;28;20293;-84
2021/10/10 05:06:55;;;;;;;3.53;2.30;;;;;;;;;;5034784;28;20210;-84
2021/10/10 05:09:22;;;;;;;2.43;2.20;;;;;;;;;;5034229;28;20198;-84
2021/10/10 05:11:49;;;;;;;2.27;2.10;;;;;;;;;;5034617;28;20253;-84
2021/10/10 05:14:16;;;;;;;6.00;5.50;;;;;;;;;;5033759;28;20199;-83
2021/10/10 05:16:43;;;;;;;4.10;3.70;;;;;;;;;;5034228;28;20244;-84
2021/10/10 05:19:11;;;;;;;4.53;4.23;;;;;;;;;;5033905;28;20665;-84
2021/10/10 05:21:38;;;;;;;3.40;3.20;;;;;;;;;;5034076;28;20252;-84
2021/10/10 05:24:07;;;;;;;3.37;3.07;;;;;;;;;;5047836;28;20241;-83
2021/10/10 05:26:34;;;;;;;2.83;2.63;;;;;;;;;;5053877;28;20284;-83
2021/10/10 05:29:01;;;;;;;3.07;2.87;;;;;;;;;;5053966;28;20641;-83
2021/10/10 05:31:28;;;;;;;3.60;3.30;;;;;;;;;;5053413;28;20678;-84
2021/10/10 05:33:55;;;;;;;3.23;3.03;;;;;;;;;;5053790;28;20198;-84
2021/10/10 05:36:23;;;;;;;3.27;3.07;;;;;;;;;;5053653;28;20200;-84
2021/10/10 05:38:50;;;;;;;3.83;3.53;;;;;;;;;;5053692;28;20313;-83
2021/10/10 05:41:18;;;;;;;4.00;3.70;;;;;;;;;;5053764;28;20204;-83
2021/10/10 05:43:46;;;;;;;4.30;4.00;;;;;;;;;;5053531;28;20637;-83
2021/10/10 05:46:13;;;;;;;4.40;4.00;;;;;;;;;;5053618;28;20194;-84
2021/10/10 05:48:41;;;;;;;4.43;4.00;;;;;;;;;;5053217;28;20222;-84
2021/10/10 05:53:39;;;;;;;4.33;3.93;;;;;;;;;;5029313;28;20218;-83
2021/10/10 05:56:06;;;;;;;5.40;5.00;;;;;;;;;;5032331;28;20210;-83
2021/10/10 05:58:40;;;;;;;5.67;4.50;;;;;;;;;;5032977;28;20600;-84
2021/10/10 06:01:07;;;;;;;3.40;2.93;;;;;;;;;;5033200;28;20183;-83
2021/10/10 06:03:34;;;;;;;6.37;5.43;;;;;;;;;;5033174;28;20202;-83
2021/10/10 06:06:02;;;;;;;7.93;4.63;;;;;;;;;;5033531;28;20578;-83
2021/10/10 06:08:29;;;;;;;4.93;4.47;;;;;;;;;;5032882;28;20277;-83
2021/10/10 06:10:56;;;;;;;5.47;5.03;;;;;;;;;;5033169;28;20285;-84
2021/10/10 06:13:23;;;;;;;5.77;5.27;;;;;;;;;;5032897;28;20210;-82
2021/10/10 06:15:52;;;;;;;5.83;5.43;;;;;;;;;;5033325;28;20230;-82
2021/10/10 06:18:19;;;;;;;4.60;4.10;;;;;;;;;;5032641;28;20222;-86
2021/10/10 06:20:46;;;;;;;4.93;4.43;;;;;;;;;;5032781;28;20639;-83
2021/10/10 06:23:13;;;;;;;4.20;3.90;;;;;;;;;;5032723;28;20236;-84
2021/10/10 06:25:41;;;;;;;3.60;2.87;;;;;;;;;;5032774;28;20379;-85
2021/10/10 06:28:08;;;;;;;3.13;2.70;;;;;;;;;;5032741;28;20202;-85
2021/10/10 06:30:35;;;;;;;4.20;2.93;;;;;;;;;;5033066;28;20294;-85
2021/10/10 06:33:04;;;;;;;2.90;2.70;;;;;;;;;;5032163;28;20250;-84
2021/10/10 06:35:31;;;;;;;3.33;3.10;;;;;;;;;;5042455;28;20210;-83
2021/10/10 06:37:58;;;;;;;3.73;3.33;;;;;;;;;;5052394;28;20605;-83
2021/10/10 06:40:25;;;;;;;3.53;3.23;;;;;;;;;;5052547;28;20202;-83
2021/10/10 06:42:53;;;;;;;4.67;3.27;;;;;;;;;;5052286;28;20201;-83
2021/10/10 06:45:20;;;;;;;3.70;3.30;;;;;;;;;;5052528;28;20225;-83
2021/10/10 06:47:47;;;;;;;3.40;3.10;;;;;;;;;;5052273;28;20198;-83
2021/10/10 06:50:16;;;;;;;3.00;2.80;;;;;;;;;;5052301;28;20658;-83
2021/10/10 06:52:43;;;;;;;3.60;3.37;;;;;;;;;;5052009;28;20241;-83
2021/10/10 06:55:10;;;;;;;4.87;4.47;;;;;;;;;;5051915;28;20194;-83
2021/10/10 06:57:37;;;;;;;3.80;3.30;;;;;;;;;;5052149;28;20204;-83
2021/10/10 07:00:06;;;;;;;3.57;3.37;;;;;;;;;;5051986;28;20222;-83
2021/10/10 07:02:34;;;;;;;3.50;3.20;;;;;;;;;;5052066;28;20194;-83
2021/10/10 07:05:03;;;;;;;3.77;3.30;;;;;;;;;;5051782;28;20210;-82
2021/10/10 07:07:31;;;;;;;3.77;3.37;;;;;;;;;;5040169;28;20659;-84
2021/10/10 07:09:58;;;;;;;4.40;3.47;;;;;;;;;;5031895;28;20198;-83
2021/10/10 07:12:26;;;;;;;4.50;4.10;;;;;;;;;;5032593;28;20199;-83
2021/10/10 07:14:53;;;;;;;4.17;3.77;;;;;;;;;;5031594;28;20206;-83
2021/10/10 07:17:24;;;;;;;3.90;3.57;;;;;;;;;;5031510;28;20198;-82
2021/10/10 07:19:54;;;;;;;5.13;4.83;;;;;;;;;;5031150;28;20643;-82
2021/10/10 07:22:30;;;;;;;7.13;6.57;;;;;;;;;;5031839;28;20667;-83
2021/10/10 07:25:05;;;;;;;16.93;15.33;;;;;;;;;;5032009;28;20194;-83
2021/10/10 07:27:34;;;;;;;10.67;9.67;;;;;;;;;;5032264;28;20186;-83
2021/10/10 07:30:03;;;;;;;7.23;5.53;;;;;;;;;;5031782;28;20268;-83
2021/10/10 07:32:30;;;;;;;6.70;5.73;;;;;;;;;;5031645;28;20198;-82
2021/10/10 07:34:57;;;;;;;17.47;5.70;;;;;;;;;;5031970;28;20194;-83
2021/10/10 07:37:25;;;;;;;5.53;5.10;;;;;;;;;;5031898;28;20671;-85
2021/10/10 07:39:52;;;;;;;6.87;4.97;;;;;;;;;;5031874;28;20607;-84
2021/10/10 07:42:22;;;;;;;3.87;3.57;;;;;;;;;;5031647;28;20206;-84
2021/10/10 07:44:51;;;;;;;5.07;4.57;;;;;;;;;;5031966;28;20199;-84
2021/10/10 07:47:30;;;;;;;5.57;4.33;;;;;;;;;;5029408;28;20203;-85
2021/10/10 07:49:58;;;;;;;5.93;5.40;;;;;;;;;;5023191;28;20293;-85
2021/10/10 07:52:25;;;;;;;4.93;4.53;;;;;;;;;;5030388;28;20238;-85
2021/10/10 07:54:53;;;;;;;5.40;4.10;;;;;;;;;;5031284;28;20621;-85
2021/10/10 07:57:21;;;;;;;4.70;4.30;;;;;;;;;;5032211;28;20225;-86
2021/10/10 07:59:49;;;;;;;4.73;4.33;;;;;;;;;;5031436;28;20229;-86
2021/10/10 08:02:16;;;;;;;12.00;10.97;;;;;;;;;;5031552;28;20195;-85
2021/10/10 08:04:43;;;;;;;7.47;6.57;;;;;;;;;;5031759;28;20229;-86
2021/10/10 08:07:10;;;;;;;6.50;5.97;;;;;;;;;;5032073;28;20198;-86
2021/10/10 08:09:37;;;;;;;5.00;4.50;;;;;;;;;;5031780;28;20286;-85
2021/10/10 08:12:05;;;;;;;5.60;5.10;;;;;;;;;;5031425;28;20202;-85
2021/10/10 08:14:34;;;;;;;4.83;4.43;;;;;;;;;;5031256;28;20214;-86
2021/10/10 08:17:01;;;;;;;4.70;4.37;;;;;;;;;;5032535;28;20213;-86
2021/10/10 08:19:28;;;;;;;6.67;5.13;;;;;;;;;;5034797;28;20230;-86
2021/10/10 08:21:55;;;;;;;4.73;4.37;;;;;;;;;;5035332;28;20297;-86
2021/10/10 08:24:23;;;;;;;5.57;4.07;;;;;;;;;;5034519;28;20650;-86
2021/10/10 08:26:50;;;;;;;4.80;3.57;;;;;;;;;;5033000;28;20202;-86
2021/10/10 08:29:18;;;;;;;5.07;3.83;;;;;;;;;;5034759;28;20207;-86
2021/10/10 08:31:46;;;;;;;4.60;4.17;;;;;;;;;;5034860;28;20202;-85
2021/10/10 08:34:14;;;;;;;3.73;3.43;;;;;;;;;;5034998;28;20191;-85
2021/10/10 08:36:41;;;;;;;6.97;6.23;;;;;;;;;;5034973;28;20202;-85
2021/10/10 08:39:08;;;;;;;33.13;19.27;;;;;;;;;;5034753;28;20309;-86
2021/10/10 08:41:38;;;;;;;83.47;47.83;;;;;;;;;;5034917;28;20761;-86
2021/10/10 08:44:07;;;;;;;34.40;20.10;;;;;;;;;;5034729;28;20203;-86
2021/10/10 08:46:35;;;;;;;9.37;7.53;;;;;;;;;;5035094;28;20210;-85
2021/10/10 08:49:04;;;;;;;9.23;6.63;;;;;;;;;;5034740;28;20217;-85
2021/10/10 08:51:34;;;;;;;7.33;6.73;;;;;;;;;;5034618;28;20201;-85
2021/10/10 08:54:01;;;;;;;7.47;5.93;;;;;;;;;;5034411;28;20262;-85
2021/10/10 08:56:29;;;;;;;6.47;5.00;;;;;;;;;;5034774;28;20203;-85
2021/10/10 08:58:56;;;;;;;8.17;4.20;;;;;;;;;;5034214;28;20225;-85
2021/10/10 09:01:29;;;;;;;7.20;5.60;;;;;;;;;;5034378;28;20202;-85
2021/10/10 09:03:56;;;;;;;12.00;9.37;;;;;;;;;;5034621;28;20224;-85
2021/10/10 09:06:25;;;;;;;9.83;5.60;;;;;;;;;;5034432;28;20234;-85
2021/10/10 09:08:53;;;;;;;9.90;7.73;;;;;;;;;;5034093;28;20640;-89
2021/10/10 09:11:21;;;;;;;6.10;5.50;;;;;;;;;;5035215;28;20206;-88
2021/10/10 09:20:35;;;;;;;9.17;6.40;;;;;;;;;;5110356;27;20547;-82
2021/10/10 09:23:03;;;;;;;10.67;6.57;;;;;;;;;;5106845;28;20663;-83
2021/10/10 09:25:31;;;;;;;14.93;6.93;;;;;;;;;;5109247;28;20667;-82
2021/10/10 09:28:04;;;;;;;10.80;7.80;;;;;;;;;;5109689;28;20563;-83
2021/10/10 09:34:32;;;;;;;5.87;5.37;;;;;;;14.70;100.00;97186.59;5122609;27;20532;-81
2021/10/10 09:37:06;;;;;;;7.73;6.77;;;;;;;11.93;100.00;97163.28;5089062;28;20290;-81
2021/10/10 09:39:39;;;;;;;9.63;7.57;;;;;;;11.08;100.00;97144.75;5089120;28;20231;-81
2021/10/10 09:42:08;;;;;;;14.33;7.63;;;;;;;10.84;100.00;97139.94;5089286;28;20223;-82
2021/10/10 09:44:53;;;;;;;9.73;6.60;;;;;;;10.82;100.00;97141.03;5088645;28;20192;-81
2021/10/10 09:47:24;;;;;;;11.53;7.00;;;;;;;10.83;100.00;97129.56;5088976;28;20650;-81
2021/10/10 09:49:52;;;;;;;9.43;5.33;;;;;;;10.75;100.00;97121.53;5088768;28;20228;-81
2021/10/10 09:52:20;;;;;;;7.57;6.60;;;;;;;10.82;100.00;97114.75;5089134;28;20204;-81
2021/10/10 09:54:55;;;;;;;9.57;5.37;;;;;;;10.85;100.00;97106.59;5088974;28;20193;-81
2021/10/10 09:57:23;;;;;;;10.20;6.47;;;;;;;10.76;100.00;97108.25;5088968;28;20290;-81
2021/10/10 09:59:53;;;;;;;12.23;5.90;;;;;;;10.83;100.00;97100.63;5088675;28;20197;-81
2021/10/10 10:02:37;;;;;;;10.43;6.77;;;;;;;10.83;100.00;97100.63;5089159;28;20200;-81
2021/10/10 10:05:06;;;;;;;13.00;10.37;;;;;;;10.86;100.00;97098.53;5088908;28;20267;-81
2021/10/10 10:07:35;;;;;;;8.77;5.70;;;;;;;10.98;100.00;97093.97;5088655;28;20199;-81
2021/10/10 10:10:03;;;;;;;14.77;6.40;;;;;;;10.98;100.00;97093.97;5088935;28;20287;-80
2021/10/10 10:12:31;;;;;;;14.40;10.73;;;;;;;-143.59;100.00;97093.97;5088759;28;20706;-81
2021/10/10 10:15:00;;;;;;;11.60;5.93;;;;;;;10.98;100.00;97093.97;5088803;28;20200;-81
2021/10/10 10:17:28;;;;;;;5.83;5.17;;;;;;;-143.59;100.00;60537.34;5088681;28;20200;-81
2021/10/10 10:19:59;;;;;;;12.47;7.30;;;;;;;-143.59;100.00;60537.34;5088246;28;20201;-81
2021/10/10 10:22:31;;;;;;;8.50;6.80;;;;;;;-143.59;100.00;60537.34;5088561;28;20185;-81
2021/10/10 10:25:00;;;;;;;11.67;6.37;;;;;;;-143.59;100.00;60537.34;5088655;28;20566;-81
2021/10/10 10:27:27;;;;;;;12.60;5.53;;;;;;;-143.59;100.00;60537.34;5088246;28;20228;-81
2021/10/10 10:29:57;;;;;;;11.40;8.20;;;;;;;-143.59;100.00;60537.34;5088189;28;20204;-81
2021/10/10 10:32:26;;;;;;;9.27;5.47;;;;;;;-143.59;100.00;60537.34;5088296;28;20238;-81
2021/10/10 10:35:00;;;;;;;11.70;5.73;;;;;;;-143.59;100.00;60537.34;5087991;28;20187;-81
2021/10/10 10:37:52;;;;;;;8.33;7.17;;;;;;;-143.59;100.00;60537.34;5084726;28;20306;-81
2021/10/10 10:45:19;;;;;;;34.20;23.23;;;;;;;;;;5110909;27;20538;-90
2021/10/10 10:47:47;;;;;;;33.10;18.73;;;;;;;;;;5110694;28;20184;-89
2021/10/10 10:50:15;;;;;;;44.37;31.30;;;;;;;;;;5110759;28;20675;-89
2021/10/10 10:52:43;;;;;;;27.37;20.03;;;;;;;;;;5117528;28;20281;-90
2021/10/10 10:55:21;;;;;;;20.47;16.10;;;;;;;;;;5130979;27;20195;-91
2021/10/10 10:57:53;;;;;;;10.57;6.80;;;;;;;;;;5130916;27;20252;-90
2021/10/10 11:00:33;;;;;;;8.30;6.60;;;;;;;;;;5130931;27;20201;-91
2021/10/10 11:03:04;;;;;;;13.40;7.20;;;;;;;;;;5130831;27;20192;-91
2021/10/10 11:05:32;;;;;;;11.27;7.73;;;;;;;;;;5131051;27;20198;-88
2021/10/10 11:08:00;;;;;;;11.07;8.77;;;;;;;;;;5131001;27;20225;-91
2021/10/10 11:10:28;;;;;;;17.53;8.60;;;;;;;;;;5130883;27;20646;-93
2021/10/10 11:12:59;;;;;;;12.10;7.77;;;;;;;;;;5130808;27;20193;-91
2021/10/10 11:15:26;;;;;;;11.07;6.57;;;;;;;;;;5130937;27;20195;-94
2021/10/10 11:18:01;;;;;;;8.23;5.50;;;;;;;;;;5131055;27;20198;-94
2021/10/10 11:20:28;;;;;;;18.20;5.83;;;;;;;;;;5131465;27;20279;-95
2021/10/10 11:22:55;;;;;;;7.23;4.77;;;;;;;;;;5130724;27;20195;-94
2021/10/10 11:25:30;;;;;;;15.63;8.73;;;;;;;;;;5124882;27;20649;-94
2021/10/10 11:27:57;;;;;;;15.47;9.47;;;;;;;;;;5091158;28;20689;-94
2021/10/10 11:30:30;;;;;;;9.93;7.87;;;;;;;;;;5091108;28;20204;-95
2021/10/10 11:32:59;;;;;;;12.43;6.97;;;;;;;;;;5110653;28;20207;-93
2021/10/10 11:35:27;;;;;;;14.17;6.13;;;;;;;;;;5110315;28;20285;-94
2021/10/10 11:38:02;;;;;;;14.70;7.50;;;;;;;;;;5110009;28;20682;-95
2021/10/10 11:40:30;;;;;;;13.13;7.27;;;;;;;;;;5109791;28;20192;-96
2021/10/10 11:42:58;;;;;;;12.87;7.10;;;;;;;;;;5109328;28;20201;-94
2021/10/10 11:45:26;;;;;;;9.93;6.57;;;;;;;;;;5109920;28;20196;-95
2021/10/10 11:47:54;;;;;;;9.73;5.67;;;;;;;;;;5109896;28;20207;-95
2021/10/10 11:50:23;;;;;;;10.33;7.60;;;;;;;;;;5109439;28;20194;-94
2021/10/10 11:52:59;;;;;;;12.97;8.40;;;;;;;;;;5109523;28;20586;-94
2021/10/10 11:55:33;;;;;;;12.97;6.60;;;;;;;;;;5102232;28;20620;-95
2021/10/10 11:58:02;;;;;;;10.40;6.17;;;;;;;;;;5096309;28;20195;-95
2021/10/10 12:00:31;;;;;;;7.67;5.73;;;;;;;;;;5095885;28;20200;-94
2021/10/10 12:03:06;;;;;;;8.87;7.20;;;;;;;;;;5096053;28;20200;-94
2021/10/10 12:05:42;;;;;;;13.60;8.40;;;;;;;;;;5095862;28;20259;-94
2021/10/10 12:08:19;;;;;;;14.23;5.73;;;;;;;;;;5096263;28;20202;-95
2021/10/10 12:10:48;;;;;;;16.97;6.13;;;;;;;;;;5096030;28;20286;-94
2021/10/10 12:13:16;;;;;;;12.40;6.00;;;;;;;;;;5095967;28;20208;-92
2021/10/10 12:15:43;;;;;;;16.27;7.40;;;;;;;;;;5095630;28;20206;-93
2021/10/10 12:18:14;;;;;;;11.03;6.17;;;;;;;;;;5095648;28;20197;-93
2021/10/10 12:20:45;;;;;;;13.50;8.37;;;;;;;;;;5095748;28;20283;-94
2021/10/10 12:23:12;;;;;;;15.53;11.10;;;;;;;;;;5095371;28;20932;-94
2021/10/10 12:25:42;;;;;;;19.13;9.53;;;;;;;;;;5095365;28;20199;-92
2021/10/10 12:28:10;;;;;;;15.27;9.60;;;;;;;;;;5095325;28;20200;-94
2021/10/10 12:30:39;;;;;;;19.57;13.20;;;;;;;;;;5095302;28;20194;-93
2021/10/10 12:33:27;;;;;;;33.00;20.87;;;;;;;;;;5095368;28;20224;-93
2021/10/10 12:35:57;;;;;;;23.57;14.20;;;;;;;;;;5095460;28;20200;-93
2021/10/10 12:38:33;;;;;;;59.67;32.23;;;;;;;;;;5095235;28;20176;-93
2021/10/10 12:41:00;;;;;;;35.40;22.20;;;;;;;;;;5095101;28;20192;-94
2021/10/10 12:43:35;;;;;;;29.10;19.07;;;;;;;;;;5094697;28;20228;-93
2021/10/10 12:46:02;;;;;;;33.57;22.40;;;;;;;;;;5094901;28;20275;-95
2021/10/10 12:48:30;;;;;;;52.90;36.57;;;;;;;;;;5094699;28;20189;-94
2021/10/10 12:51:00;;;;;;;28.67;19.07;;;;;;;;;;5095044;28;20582;-94
2021/10/10 12:53:29;;;;;;;21.97;15.23;;;;;;;;;;5094944;28;20622;-94
2021/10/10 12:56:17;;;;;;;17.27;12.40;;;;;;;;;;5094853;28;20223;-94
2021/10/10 12:58:51;;;;;;;8.80;7.00;;;;;;;;;;5094769;28;20219;-94
2021/10/10 13:01:20;;;;;;;12.73;8.93;;;;;;;;;;5095172;28;20672;-93
2021/10/10 13:03:47;;;;;;;16.73;11.90;;;;;;;;;;5094836;28;20307;-93
2021/10/10 13:06:16;;;;;;;14.20;8.43;;;;;;;;;;5094312;28;20207;-94
2021/10/10 13:08:51;;;;;;;10.70;7.30;;;;;;;;;;5094309;28;20202;-92
2021/10/10 13:11:20;;;;;;;13.30;6.73;;;;;;;;;;5094616;28;20279;-92
2021/10/10 13:13:47;;;;;;;12.30;6.63;;;;;;;;;;5094472;28;20193;-91
2021/10/10 13:16:16;;;;;;;12.93;7.13;;;;;;;;;;5094423;28;20197;-92
2021/10/10 13:18:43;;;;;;;15.73;7.37;;;;;;;;;;5094497;28;20660;-94
2021/10/10 13:21:11;;;;;;;9.67;6.53;;;;;;;;;;5094339;28;20196;-94
2021/10/10 13:23:40;;;;;;;10.80;6.20;;;;;;;;;;5094186;28;20696;-93
2021/10/10 13:26:08;;;;;;;7.30;5.53;;;;;;;;;;5094264;28;20232;-94
2021/10/10 13:28:35;;;;;;;12.30;5.40;;;;;;;;;;5094372;28;20609;-93
2021/10/10 13:31:03;;;;;;;11.30;5.43;;;;;;;;;;5094368;28;20215;-94
2021/10/10 13:33:33;;;;;;;6.77;5.53;;;;;;;;;;5094036;28;20309;-95
2021/10/10 13:36:03;;;;;;;16.57;6.80;;;;;;;;;;5094657;28;20203;-93
2021/10/10 13:38:30;;;;;;;15.43;7.87;;;;;;;;;;5094088;28;20202;-94
2021/10/10 13:41:00;;;;;;;11.43;9.23;;;;;;;;;;5093998;28;20271;-94
2021/10/10 13:43:28;;;;;;;12.77;9.40;;;;;;;;;;5093693;28;20247;-94
2021/10/10 13:45:58;;;;;;;19.83;9.03;;;;;;;;;;5093489;28;20705;-93
2021/10/10 13:48:25;;;;;;;22.40;7.57;;;;;;;;;;5093660;28;20249;-94
2021/10/10 13:50:54;;;;;;;19.97;8.57;;;;;;;;;;5094094;28;20199;-94
2021/10/10 13:53:21;;;;;;;13.30;8.43;;;;;;;;;;5093779;28;20195;-94
2021/10/10 13:55:49;;;;;;;18.77;9.60;;;;;;;;;;5094364;28;20657;-95
2021/10/10 13:58:18;;;;;;;24.80;12.47;;;;;;;;;;5093579;28;20195;-95
2021/10/10 14:00:45;;;;;;;14.97;7.87;;;;;;;;;;5093561;28;20279;-94
2021/10/10 14:03:13;;;;;;;11.33;7.57;;;;;;;;;;5094079;28;20200;-93
2021/10/10 14:05:40;;;;;;;13.10;7.37;;;;;;;;;;5093254;28;20311;-92
2021/10/10 14:08:08;;;;;;;12.03;7.97;;;;;;;;;;5093555;28;20236;-93
2021/10/10 14:10:36;;;;;;;14.10;6.47;;;;;;;;;;5093328;28;20283;-93
2021/10/10 14:15:40;;;;;;;13.23;7.13;;;;;;;;;;5224463;22;20468;-91
2021/10/10 14:18:07;;;;;;;13.43;9.30;;;;;;;;;;4996818;28;20212;-91
2021/10/10 14:20:34;;;;;;;15.37;7.47;;;;;;;;;;4994069;28;20586;-91
2021/10/10 14:23:01;;;;;;;10.23;5.60;;;;;;;;;;4993746;28;20302;-92
2021/10/10 14:25:28;;;;;;;7.43;5.47;;;;;;;;;;4993526;28;20234;-91
2021/10/10 14:27:58;;;;;;;13.10;7.00;;;;;;;;;;4993744;28;20674;-91
2021/10/10 14:30:25;;;;;;;15.20;8.73;;;;;;;;;;4993577;28;20295;-91
2021/10/10 14:32:54;;;;;;;9.90;7.33;;;;;;;;;;4993927;28;20583;-91
2021/10/10 14:35:22;;;;;;;25.23;14.47;;;;;;;;;;5000955;28;20554;-92
2021/10/10 14:37:49;;;;;;;17.10;9.33;;;;;;;;;;5013474;28;20206;-93
2021/10/10 14:40:17;;;;;;;15.00;8.93;;;;;;;;;;5013012;28;20215;-93
2021/10/10 14:42:48;;;;;;;13.87;7.80;;;;;;;;;;5013143;28;20648;-93
2021/10/10 14:45:18;;;;;;;12.60;9.50;;;;;;;;;;5013369;28;20289;-93
2021/10/10 14:48:07;;;;;;;19.30;11.13;;;;;;;;;;5013591;28;20231;-93
2021/10/10 14:50:37;;;;;;;18.03;11.83;;;;;;;;;;5013081;28;20200;-92